createdAt,value
2018-07-12T00:02:31.957Z,18.20
2018-07-12T00:04:59.277Z,18.20
2018-07-12T00:07:26.596Z,18.20
2018-07-12T00:09:53.902Z,18.20
2018-07-12T00:12:21.546Z,18.20
2018-07-12T00:14:48.954Z,18.10
2018-07-12T00:17:16.254Z,18.10
2018-07-12T00:22:11.508Z,18.10
2018-07-12T00:24:38.906Z,18.10
2018-07-12T00:27:06.257Z,18.10
2018-07-12T00:29:33.541Z,18.10
2018-07-12T00:32:00.949Z,18.20
2018-07-12T00:34:28.617Z,18.20
2018-07-12T00:36:55.905Z,18.20
2018-07-12T00:39:23.234Z,18.20
2018-07-12T00:41:50.700Z,18.20
2018-07-12T00:44:18.089Z,18.20
2018-07-12T00:46:45.396Z,18.20
2018-07-12T00:49:12.879Z,18.20
2018-07-12T00:51:40.322Z,18.20
2018-07-12T00:54:07.641Z,18.20
2018-07-12T00:56:34.946Z,18.20
2018-07-12T00:59:02.257Z,18.20
2018-07-12T01:01:29.778Z,18.20
2018-07-12T01:03:57.080Z,18.20
2018-07-12T01:06:24.557Z,18.20
2018-07-12T01:08:51.872Z,18.20
2018-07-12T01:11:19.161Z,18.20
2018-07-12T01:13:46.819Z,18.20
2018-07-12T01:23:36.918Z,18.20
2018-07-12T01:26:04.781Z,18.20
2018-07-12T01:28:32.345Z,18.20
2018-07-12T01:31:00.009Z,18.30
2018-07-12T01:33:27.425Z,18.30
2018-07-12T01:35:55.055Z,18.30
2018-07-12T01:40:50.117Z,18.30
2018-07-12T01:43:17.484Z,18.30
2018-07-12T01:45:44.984Z,18.20
2018-07-12T01:48:12.543Z,18.20
2018-07-12T01:50:40.091Z,18.20
2018-07-12T01:53:07.743Z,18.20
2018-07-12T01:58:02.649Z,18.10
2018-07-12T02:00:29.943Z,18.00
2018-07-12T02:02:57.280Z,17.90
2018-07-12T02:05:24.826Z,17.90
2018-07-12T02:07:52.179Z,17.80
2018-07-12T02:10:19.558Z,17.70
2018-07-12T02:12:47.121Z,17.60
2018-07-12T02:15:14.431Z,17.50
2018-07-12T02:17:41.743Z,17.50
2018-07-12T02:20:09.061Z,17.40
2018-07-12T02:22:37.350Z,17.30
2018-07-12T02:25:04.704Z,17.20
2018-07-12T02:27:32.063Z,17.20
2018-07-12T02:29:59.360Z,17.10
2018-07-12T02:32:27.042Z,17.10
2018-07-12T02:34:54.337Z,17.00
2018-07-12T02:37:21.685Z,16.90
2018-07-12T02:39:49.029Z,16.90
2018-07-12T02:42:16.325Z,16.80
2018-07-12T02:44:43.670Z,16.80
2018-07-12T02:47:11.259Z,16.70
2018-07-12T02:52:06.367Z,16.60
2018-07-12T02:54:33.799Z,16.60
2018-07-12T02:57:01.116Z,16.50
2018-07-12T02:59:28.845Z,16.50
2018-07-12T03:01:56.186Z,16.50
2018-07-12T03:04:23.547Z,16.50
2018-07-12T03:06:50.882Z,16.40
2018-07-12T03:09:18.257Z,16.40
2018-07-12T03:11:45.729Z,16.40
2018-07-12T03:14:13.162Z,16.30
2018-07-12T03:16:40.753Z,16.30
2018-07-12T03:19:08.080Z,16.20
2018-07-12T03:21:35.537Z,16.20
2018-07-12T03:24:03.806Z,16.20
2018-07-12T03:26:31.131Z,16.10
2018-07-12T03:28:58.613Z,16.10
2018-07-12T03:31:26.053Z,16.10
2018-07-12T03:33:53.449Z,16.10
2018-07-12T03:36:20.815Z,16.10
2018-07-12T03:38:48.100Z,16.10
2018-07-12T03:41:15.458Z,16.10
2018-07-12T03:43:42.824Z,16.10
2018-07-12T03:46:10.191Z,16.00
2018-07-12T03:48:37.582Z,16.00
2018-07-12T03:51:04.891Z,16.00
2018-07-12T03:53:32.226Z,16.00
2018-07-12T03:55:59.553Z,16.00
2018-07-12T03:58:27.653Z,16.00
2018-07-12T04:00:55.175Z,16.10
2018-07-12T04:03:22.456Z,16.10
2018-07-12T04:05:49.797Z,16.20
2018-07-12T04:08:17.183Z,16.20
2018-07-12T04:10:44.572Z,16.30
2018-07-12T04:13:11.993Z,16.40
2018-07-12T04:15:39.338Z,16.60
2018-07-12T04:18:06.873Z,16.70
2018-07-12T04:20:34.474Z,17.00
2018-07-12T04:23:01.817Z,17.20
2018-07-12T04:25:29.241Z,17.40
2018-07-12T04:27:56.797Z,17.80
2018-07-12T04:30:24.234Z,18.10
2018-07-12T04:35:25.331Z,19.00
2018-07-12T04:37:52.780Z,19.40
2018-07-12T04:40:20.028Z,19.80
2018-07-12T04:42:47.503Z,20.20
2018-07-12T04:45:15.016Z,20.60
2018-07-12T04:47:42.534Z,21.00
2018-07-12T04:50:10.081Z,21.40
2018-07-12T04:52:37.418Z,21.80
2018-07-12T04:55:04.888Z,22.20
2018-07-12T04:57:32.388Z,22.60
2018-07-12T04:59:59.822Z,23.00
2018-07-12T05:02:27.356Z,23.40
2018-07-12T05:04:55.075Z,23.80
2018-07-12T05:07:22.946Z,24.20
2018-07-12T05:09:50.714Z,24.50
2018-07-12T05:12:18.243Z,24.90
2018-07-12T05:14:46.295Z,25.30
2018-07-12T05:17:14.196Z,25.70
2018-07-12T05:19:41.586Z,25.90
2018-07-12T05:24:36.522Z,26.30
2018-07-12T05:27:03.976Z,26.50
2018-07-12T05:29:31.441Z,26.60
2018-07-12T05:31:58.765Z,26.90
2018-07-12T05:34:26.489Z,27.20
2018-07-12T05:36:56.550Z,27.40
2018-07-12T05:39:25.532Z,27.70
2018-07-12T05:41:55.171Z,28.10
2018-07-12T05:44:23.610Z,28.40
2018-07-12T05:46:52.177Z,28.50
2018-07-12T05:49:20.705Z,28.50
2018-07-12T05:51:49.240Z,28.80
2018-07-12T05:54:18.794Z,29.00
2018-07-12T05:56:48.064Z,29.30
2018-07-12T05:59:17.271Z,29.70
2018-07-12T06:01:57.313Z,29.90
2018-07-12T06:04:26.199Z,30.10
2018-07-12T06:06:54.912Z,30.50
2018-07-12T06:09:23.916Z,30.80
2018-07-12T06:11:52.901Z,31.40
2018-07-12T06:14:22.104Z,31.80
2018-07-12T06:16:51.348Z,31.90
2018-07-12T06:19:19.894Z,31.90
2018-07-12T06:21:48.669Z,31.40
2018-07-12T06:24:17.699Z,31.00
2018-07-12T06:26:46.476Z,30.60
2018-07-12T06:29:14.959Z,30.50
2018-07-12T06:31:43.980Z,30.20
2018-07-12T06:34:13.548Z,30.10
2018-07-12T06:36:42.203Z,30.10
2018-07-12T06:39:11.998Z,30.20
2018-07-12T06:41:40.861Z,30.30
2018-07-12T06:44:09.427Z,30.50
2018-07-12T06:46:38.040Z,30.50
2018-07-12T06:49:07.074Z,30.50
2018-07-12T06:51:35.538Z,29.90
2018-07-12T06:54:04.137Z,29.60
2018-07-12T06:56:32.752Z,29.50
2018-07-12T06:59:01.262Z,29.30
2018-07-12T07:01:29.764Z,28.90
2018-07-12T07:03:58.269Z,28.40
2018-07-12T07:06:26.713Z,28.60
2018-07-12T07:08:55.625Z,29.00
2018-07-12T07:11:24.377Z,29.30
2018-07-12T07:13:53.067Z,29.50
2018-07-12T07:16:21.733Z,29.90
2018-07-12T07:18:50.236Z,29.80
2018-07-12T07:21:18.729Z,29.70
2018-07-12T07:23:47.380Z,29.50
2018-07-12T07:26:15.904Z,29.40
2018-07-12T07:28:45.397Z,29.60
2018-07-12T07:31:13.856Z,29.90
2018-07-12T07:33:42.673Z,30.30
2018-07-12T07:36:11.645Z,30.10
2018-07-12T07:38:40.601Z,30.10
2018-07-12T07:41:09.041Z,29.80
2018-07-12T07:43:37.869Z,29.30
2018-07-12T07:46:06.636Z,28.60
2018-07-12T07:48:35.245Z,27.90
2018-07-12T07:51:04.092Z,27.30
2018-07-12T07:53:32.800Z,26.60
2018-07-12T07:56:01.463Z,26.10
2018-07-12T07:58:29.992Z,26.40
2018-07-12T08:00:58.464Z,27.20
2018-07-12T08:03:27.637Z,27.60
2018-07-12T08:08:24.735Z,28.10
2018-07-12T08:10:54.067Z,28.60
2018-07-12T08:13:22.616Z,28.70
2018-07-12T08:15:51.569Z,29.50
2018-07-12T08:18:20.653Z,30.30
2018-07-12T08:20:49.737Z,31.10
2018-07-12T08:23:18.823Z,32.00
2018-07-12T08:25:47.453Z,32.80
2018-07-12T08:28:25.726Z,33.50
2018-07-12T08:30:54.842Z,33.50
2018-07-12T08:33:23.918Z,34.10
2018-07-12T08:35:53.080Z,34.70
2018-07-12T08:38:21.798Z,35.00
2018-07-12T08:40:50.646Z,34.80
2018-07-12T08:43:19.964Z,34.40
2018-07-12T08:45:49.099Z,34.20
2018-07-12T08:48:18.576Z,33.80
2018-07-12T08:50:47.597Z,33.30
2018-07-12T08:53:16.814Z,33.00
2018-07-12T08:55:45.773Z,32.90
2018-07-12T08:58:14.786Z,33.00
2018-07-12T09:00:43.484Z,33.40
2018-07-12T09:03:12.437Z,33.60
2018-07-12T09:05:41.142Z,33.50
2018-07-12T09:08:10.136Z,33.50
2018-07-12T09:10:38.738Z,34.30
2018-07-12T09:13:07.504Z,35.00
2018-07-12T09:15:36.465Z,34.70
2018-07-12T09:18:06.337Z,35.00
2018-07-12T09:20:35.548Z,35.80
2018-07-12T09:23:04.564Z,36.10
2018-07-12T09:25:34.221Z,36.20
2018-07-12T09:28:03.533Z,36.10
2018-07-12T09:30:33.236Z,36.40
2018-07-12T09:33:02.116Z,37.10
2018-07-12T09:35:30.969Z,37.00
2018-07-12T09:38:00.347Z,37.00
2018-07-12T09:40:29.396Z,36.40
2018-07-12T09:42:58.338Z,36.10
2018-07-12T09:45:27.435Z,35.50
2018-07-12T09:47:56.433Z,35.30
2018-07-12T09:50:25.473Z,34.90
2018-07-12T09:52:54.539Z,34.10
2018-07-12T09:55:23.305Z,33.00
2018-07-12T09:58:11.459Z,32.80
2018-07-12T10:00:45.760Z,32.60
2018-07-12T10:03:20.820Z,32.40
2018-07-12T10:05:55.172Z,32.40
2018-07-12T10:08:29.938Z,33.00
2018-07-12T10:11:04.228Z,33.60
2018-07-12T10:13:38.286Z,33.90
2018-07-12T10:16:12.583Z,33.60
2018-07-12T10:18:41.074Z,33.30
2018-07-12T10:21:10.084Z,33.70
2018-07-12T10:23:38.908Z,34.50
2018-07-12T10:26:07.533Z,35.10
2018-07-12T10:28:36.208Z,35.70
2018-07-12T10:31:04.725Z,36.60
2018-07-12T10:33:33.167Z,37.10
2018-07-12T10:36:01.654Z,37.70
2018-07-12T10:38:30.230Z,38.60
2018-07-12T10:40:58.823Z,38.90
2018-07-12T10:43:28.020Z,38.80
2018-07-12T10:45:56.808Z,37.90
2018-07-12T10:48:26.295Z,36.90
2018-07-12T10:50:54.917Z,36.50
2018-07-12T10:53:23.397Z,36.50
2018-07-12T10:55:52.329Z,36.00
2018-07-12T10:58:21.597Z,35.00
2018-07-12T11:00:50.661Z,34.40
2018-07-12T11:03:19.287Z,34.50
2018-07-12T11:05:48.207Z,34.80
2018-07-12T11:08:17.082Z,35.30
2018-07-12T11:10:45.961Z,35.60
2018-07-12T11:13:17.738Z,34.60
2018-07-12T11:15:47.131Z,33.70
2018-07-12T11:18:15.877Z,32.90
2018-07-12T11:20:44.405Z,32.50
2018-07-12T11:23:13.000Z,31.90
2018-07-12T11:25:41.953Z,31.40
2018-07-12T11:28:10.699Z,31.10
2018-07-12T11:30:40.017Z,31.10
2018-07-12T11:33:20.020Z,31.20
2018-07-12T11:35:49.012Z,31.30
2018-07-12T11:38:17.754Z,31.40
2018-07-12T11:40:46.912Z,31.30
2018-07-12T11:43:16.444Z,31.00
2018-07-12T11:45:45.403Z,30.90
2018-07-12T11:48:14.026Z,30.70
2018-07-12T11:50:42.576Z,30.40
2018-07-12T11:53:11.497Z,30.40
2018-07-12T11:55:40.134Z,30.10
2018-07-12T11:58:09.013Z,30.00
2018-07-12T12:00:37.857Z,29.90
2018-07-12T12:03:06.606Z,29.90
2018-07-12T12:05:35.969Z,29.90
2018-07-12T12:08:04.927Z,29.90
2018-07-12T12:10:33.603Z,30.10
2018-07-12T12:13:03.525Z,30.20
2018-07-12T12:15:32.458Z,30.20
2018-07-12T12:18:01.758Z,30.20
2018-07-12T12:20:30.227Z,30.10
2018-07-12T12:22:59.169Z,30.00
2018-07-12T12:25:27.648Z,30.00
2018-07-12T12:27:56.960Z,29.90
2018-07-12T12:30:26.166Z,29.80
2018-07-12T12:32:54.925Z,30.00
2018-07-12T12:35:23.453Z,30.20
2018-07-12T12:37:52.958Z,30.20
2018-07-12T12:40:21.556Z,30.30
2018-07-12T12:42:50.267Z,30.40
2018-07-12T12:45:18.853Z,30.40
2018-07-12T12:47:47.542Z,30.30
2018-07-12T12:50:16.423Z,30.30
2018-07-12T12:52:45.061Z,30.20
2018-07-12T12:55:14.037Z,30.00
2018-07-12T12:57:42.550Z,29.90
2018-07-12T13:00:11.110Z,29.70
2018-07-12T13:02:39.581Z,29.60
2018-07-12T13:05:08.185Z,29.90
2018-07-12T13:07:36.902Z,29.90
2018-07-12T13:10:05.838Z,30.00
2018-07-12T13:12:34.392Z,30.20
2018-07-12T13:15:03.069Z,30.40
2018-07-12T13:17:31.652Z,30.40
2018-07-12T13:20:00.483Z,30.60
2018-07-12T13:22:29.222Z,30.70
2018-07-12T13:24:58.112Z,30.80
2018-07-12T13:27:26.821Z,30.80
2018-07-12T13:29:55.482Z,31.00
2018-07-12T13:32:23.971Z,31.10
2018-07-12T13:34:52.566Z,31.10
2018-07-12T13:37:21.144Z,30.70
2018-07-12T13:39:50.592Z,30.40
2018-07-12T13:42:19.644Z,30.40
2018-07-12T13:44:48.173Z,30.20
2018-07-12T13:47:17.121Z,30.30
2018-07-12T13:49:45.871Z,30.40
2018-07-12T13:52:14.449Z,30.30
2018-07-12T13:54:43.030Z,30.30
2018-07-12T13:57:11.800Z,30.30
2018-07-12T13:59:40.411Z,30.30
2018-07-12T14:02:08.998Z,30.20
2018-07-12T14:04:37.604Z,30.30
2018-07-12T14:07:06.322Z,30.30
2018-07-12T14:09:35.109Z,30.20
2018-07-12T14:12:03.852Z,29.90
2018-07-12T14:14:33.234Z,29.60
2018-07-12T14:17:02.121Z,29.50
2018-07-12T14:19:31.461Z,29.60
2018-07-12T14:22:00.227Z,29.60
2018-07-12T14:24:29.180Z,29.80
2018-07-12T14:26:58.004Z,29.90
2018-07-12T14:29:26.761Z,30.00
2018-07-12T14:31:55.369Z,30.10
2018-07-12T14:34:24.573Z,30.00
2018-07-12T14:36:53.320Z,30.10
2018-07-12T14:39:22.046Z,30.10
2018-07-12T14:41:50.837Z,30.20
2018-07-12T14:44:19.661Z,30.10
2018-07-12T14:46:48.290Z,30.20
2018-07-12T14:49:17.583Z,30.30
2018-07-12T14:51:46.272Z,30.30
2018-07-12T14:54:14.966Z,30.40
2018-07-12T14:56:43.893Z,30.20
2018-07-12T14:59:12.793Z,30.10
2018-07-12T15:01:41.275Z,30.10
2018-07-12T15:04:10.099Z,30.10
2018-07-12T15:06:38.946Z,30.10
2018-07-12T15:09:08.303Z,30.00
2018-07-12T15:11:37.965Z,30.00
2018-07-12T15:14:06.967Z,29.90
2018-07-12T15:16:35.493Z,29.40
2018-07-12T15:19:04.281Z,29.20
2018-07-12T15:21:32.990Z,29.20
2018-07-12T15:24:01.853Z,29.20
2018-07-12T15:26:31.056Z,29.30
2018-07-12T15:28:59.925Z,29.30
2018-07-12T15:31:28.705Z,29.30
2018-07-12T15:33:57.237Z,29.10
2018-07-12T15:36:25.743Z,29.20
2018-07-12T15:38:54.246Z,29.20
2018-07-12T15:43:51.072Z,29.30
2018-07-12T15:46:19.776Z,29.40
2018-07-12T15:48:48.552Z,29.30
2018-07-12T15:51:18.686Z,29.40
2018-07-12T15:53:50.799Z,29.40
2018-07-12T15:56:19.535Z,29.40
2018-07-12T15:58:50.659Z,29.40
2018-07-12T16:01:19.701Z,29.40
2018-07-12T16:03:49.028Z,29.40
2018-07-12T16:06:18.530Z,29.30
2018-07-12T16:21:47.703Z,29.30
2018-07-12T16:24:16.711Z,29.10
2018-07-12T16:26:45.455Z,29.00
2018-07-12T16:29:14.145Z,29.00
2018-07-12T16:31:43.105Z,29.10
2018-07-12T16:34:11.742Z,29.20
2018-07-12T16:36:40.374Z,29.10
2018-07-12T16:39:09.340Z,29.10
2018-07-12T16:41:37.848Z,29.00
2018-07-12T16:44:06.684Z,29.00
2018-07-12T16:46:35.236Z,29.00
2018-07-12T16:49:03.781Z,29.00
2018-07-12T16:51:32.551Z,29.00
2018-07-12T16:54:01.209Z,28.90
2018-07-12T16:56:29.946Z,28.70
2018-07-12T16:58:59.254Z,28.70
2018-07-12T17:01:27.809Z,28.50
2018-07-12T17:03:56.318Z,28.40
2018-07-12T17:06:24.950Z,28.30
2018-07-12T17:08:53.432Z,28.30
2018-07-12T17:11:21.960Z,28.10
2018-07-12T17:13:51.027Z,28.00
2018-07-12T17:16:19.647Z,27.90
2018-07-12T17:18:48.296Z,27.80
2018-07-12T17:21:16.882Z,27.70
2018-07-12T17:23:45.562Z,27.50
2018-07-12T17:26:14.265Z,27.50
2018-07-12T17:31:12.285Z,27.40
2018-07-12T17:33:40.938Z,27.30
2018-07-12T17:36:09.507Z,27.20
2018-07-12T17:38:38.308Z,27.10
2018-07-12T17:41:07.064Z,27.10
2018-07-12T17:43:36.613Z,27.00
2018-07-12T17:46:05.217Z,27.00
2018-07-12T17:48:34.185Z,27.00
2018-07-12T17:53:31.583Z,27.00
2018-07-12T17:56:00.236Z,26.90
2018-07-12T17:58:29.015Z,26.90
2018-07-12T18:00:57.851Z,26.80
2018-07-12T18:03:26.669Z,26.70
2018-07-12T18:05:55.533Z,26.60
2018-07-12T18:08:24.195Z,26.50
2018-07-12T18:10:53.158Z,26.40
2018-07-12T18:13:22.087Z,26.40
2018-07-12T18:15:50.673Z,26.30
2018-07-12T18:18:19.613Z,26.20
2018-07-12T18:20:48.300Z,26.10
2018-07-12T18:23:16.988Z,26.00
2018-07-12T18:25:45.787Z,26.00
2018-07-12T18:28:14.587Z,25.80
2018-07-12T18:30:43.306Z,25.70
2018-07-12T18:35:40.343Z,25.50
2018-07-12T18:38:09.054Z,25.40
2018-07-12T18:40:38.111Z,25.30
2018-07-12T18:43:06.929Z,25.10
2018-07-12T18:45:35.750Z,25.10
2018-07-12T18:48:04.620Z,25.00
2018-07-12T18:50:34.349Z,25.00
2018-07-12T18:53:03.241Z,24.90
2018-07-12T18:55:32.001Z,24.90
2018-07-12T18:58:01.385Z,24.80
2018-07-12T19:00:30.163Z,24.80
2018-07-12T19:02:58.940Z,24.80
2018-07-12T19:05:28.165Z,24.70
2018-07-12T19:07:57.135Z,24.70
2018-07-12T19:10:25.895Z,24.70
2018-07-12T19:12:54.425Z,24.70
2018-07-12T19:15:22.976Z,24.60
2018-07-12T19:17:52.025Z,24.60
2018-07-12T19:20:20.808Z,24.60
2018-07-12T19:22:49.429Z,24.50
2018-07-12T19:25:18.116Z,24.50
2018-07-12T19:27:46.757Z,24.40
2018-07-12T19:30:15.372Z,24.40
2018-07-12T19:32:44.189Z,24.40
2018-07-12T19:35:13.404Z,24.30
2018-07-12T19:37:41.997Z,24.30
2018-07-12T19:40:11.056Z,24.30
2018-07-12T19:42:39.930Z,24.20
2018-07-12T19:45:08.804Z,24.10
2018-07-12T19:47:37.704Z,24.10
2018-07-12T19:50:06.765Z,24.00
2018-07-12T19:52:35.867Z,23.90
2018-07-12T19:55:04.971Z,23.80
2018-07-12T19:57:33.917Z,23.70
2018-07-12T20:00:03.018Z,23.60
2018-07-12T20:02:32.022Z,23.60
2018-07-12T20:05:00.713Z,23.50
2018-07-12T20:07:35.998Z,23.40
2018-07-12T20:10:04.630Z,23.30
2018-07-12T20:12:33.229Z,23.20
2018-07-12T20:15:02.375Z,23.20
2018-07-12T20:17:31.305Z,23.10
2018-07-12T20:20:00.221Z,23.00
2018-07-12T20:22:28.919Z,23.00
2018-07-12T20:24:57.523Z,22.90
2018-07-12T20:27:26.141Z,22.80
2018-07-12T20:29:54.630Z,22.80
2018-07-12T20:32:23.120Z,22.70
2018-07-12T20:37:20.184Z,22.60
2018-07-12T20:39:48.688Z,22.60
2018-07-12T20:42:17.330Z,22.50
2018-07-12T20:44:45.998Z,22.50
2018-07-12T20:47:14.589Z,22.40
2018-07-12T20:49:43.107Z,22.40
2018-07-12T20:52:11.855Z,22.40
2018-07-12T20:54:40.476Z,22.30
2018-07-12T20:57:09.225Z,22.30
2018-07-12T20:59:37.750Z,22.20
2018-07-12T21:02:06.575Z,22.10
2018-07-12T21:04:35.287Z,22.10
2018-07-12T21:07:03.933Z,22.00
2018-07-12T21:09:33.204Z,22.00
2018-07-12T21:12:01.898Z,21.90
2018-07-12T21:14:30.513Z,21.90
2018-07-12T21:16:59.112Z,21.90
2018-07-12T21:19:27.832Z,21.80
2018-07-12T21:21:56.490Z,21.80
2018-07-12T21:24:25.144Z,21.80
2018-07-12T21:26:53.674Z,21.80
2018-07-12T21:29:22.466Z,21.80
2018-07-12T21:31:51.138Z,21.70
2018-07-12T21:34:19.782Z,21.70
2018-07-12T21:36:48.289Z,21.70
2018-07-12T21:39:16.994Z,21.70
2018-07-12T21:41:45.478Z,21.60
2018-07-12T21:44:14.013Z,21.60
2018-07-12T21:46:42.621Z,21.50
2018-07-12T21:49:11.087Z,21.50
2018-07-12T21:51:39.637Z,21.50
2018-07-12T21:54:08.249Z,21.50
2018-07-12T21:56:36.711Z,21.40
2018-07-12T21:59:05.509Z,21.40
2018-07-12T22:01:34.066Z,21.30
2018-07-12T22:04:02.729Z,21.30
2018-07-12T22:06:44.384Z,21.20
2018-07-12T22:09:13.004Z,21.20
2018-07-12T22:11:41.477Z,21.10
2018-07-12T22:14:10.064Z,21.10
2018-07-12T22:16:38.637Z,21.00
2018-07-12T22:19:07.386Z,21.00
2018-07-12T22:24:04.835Z,20.80
2018-07-12T22:26:33.365Z,20.80
2018-07-12T22:29:02.134Z,20.80
2018-07-12T22:31:30.624Z,20.70
2018-07-12T22:33:59.322Z,20.70
2018-07-12T22:36:27.949Z,20.60
2018-07-12T22:38:56.488Z,20.60
2018-07-12T22:41:25.058Z,20.50
2018-07-12T22:43:53.553Z,20.50
2018-07-12T22:46:22.154Z,20.40
2018-07-12T22:48:50.943Z,20.40
2018-07-12T22:51:19.561Z,20.30
2018-07-12T22:56:16.691Z,20.20
2018-07-12T22:58:45.317Z,20.10
2018-07-12T23:03:42.266Z,20.00
2018-07-12T23:06:11.058Z,20.00
2018-07-12T23:08:39.666Z,20.00
2018-07-12T23:11:08.287Z,19.90
2018-07-12T23:13:37.800Z,19.90
2018-07-12T23:16:06.426Z,19.80
2018-07-12T23:18:35.517Z,19.80
2018-07-12T23:21:04.102Z,19.70
2018-07-12T23:23:32.786Z,19.70
2018-07-12T23:26:01.308Z,19.70
2018-07-12T23:28:29.790Z,19.60
2018-07-12T23:30:58.441Z,19.60
2018-07-12T23:33:27.036Z,19.50
2018-07-12T23:35:55.925Z,19.50
2018-07-12T23:38:24.623Z,19.50
2018-07-12T23:40:53.127Z,19.40
2018-07-12T23:43:21.997Z,19.40
2018-07-12T23:45:50.515Z,19.30
2018-07-12T23:48:19.084Z,19.30
2018-07-12T23:50:47.802Z,19.30
2018-07-12T23:53:16.352Z,19.30
2018-07-12T23:55:45.357Z,19.30
